sensor_id;sensor_type;location;lat;lon;timestamp;temperature;humidity
31661;DHT22;18267;52.234;7.444;2023-09-30T00:01:21;14.00;99.90
31661;DHT22;18267;52.234;7.444;2023-09-30T00:03:47;14.00;99.90
31661;DHT22;18267;52.234;7.444;2023-09-30T00:06:13;14.00;99.90
31661;DHT22;18267;52.234;7.444;2023-09-30T00:08:38;14.00;99.90
31661;DHT22;18267;52.234;7.444;2023-09-30T00:11:05;14.10;99.90
31661;DHT22;18267;52.234;7.444;2023-09-30T00:13:32;14.10;99.90
31661;DHT22;18267;52.234;7.444;2023-09-30T00:15:57;14.20;99.90
31661;DHT22;18267;52.234;7.444;2023-09-30T00:18:23;14.10;99.90
31661;DHT22;18267;52.234;7.444;2023-09-30T00:20:49;14.10;99.90
31661;DHT22;18267;52.234;7.444;2023-09-30T00:23:15;14.10;99.90
31661;DHT22;18267;52.234;7.444;2023-09-30T00:25:40;14.00;99.90
31661;DHT22;18267;52.234;7.444;2023-09-30T00:28:07;14.00;99.90
31661;DHT22;18267;52.234;7.444;2023-09-30T00:30:33;14.00;99.90
31661;DHT22;18267;52.234;7.444;2023-09-30T00:32:59;14.00;99.90
31661;DHT22;18267;52.234;7.444;2023-09-30T00:35:24;14.10;99.90
31661;DHT22;18267;52.234;7.444;2023-09-30T00:37:51;14.10;99.90
31661;DHT22;18267;52.234;7.444;2023-09-30T00:40:16;14.00;99.90
31661;DHT22;18267;52.234;7.444;2023-09-30T00:42:42;13.90;99.90
31661;DHT22;18267;52.234;7.444;2023-09-30T00:45:08;13.90;99.90
31661;DHT22;18267;52.234;7.444;2023-09-30T00:47:37;13.90;99.90
31661;DHT22;18267;52.234;7.444;2023-09-30T00:50:06;13.80;99.90
31661;DHT22;18267;52.234;7.444;2023-09-30T00:52:35;13.80;99.90
31661;DHT22;18267;52.234;7.444;2023-09-30T00:55:01;13.80;99.90
31661;DHT22;18267;52.234;7.444;2023-09-30T00:57:30;13.90;99.90
31661;DHT22;18267;52.234;7.444;2023-09-30T00:59:56;13.90;99.90
31661;DHT22;18267;52.234;7.444;2023-09-30T01:02:22;14.00;99.90
31661;DHT22;18267;52.234;7.444;2023-09-30T01:04:48;14.10;99.90
31661;DHT22;18267;52.234;7.444;2023-09-30T01:07:14;14.10;99.90
31661;DHT22;18267;52.234;7.444;2023-09-30T01:09:40;14.10;99.90
31661;DHT22;18267;52.234;7.444;2023-09-30T01:12:06;14.10;99.90
31661;DHT22;18267;52.234;7.444;2023-09-30T01:14:34;14.00;99.90
31661;DHT22;18267;52.234;7.444;2023-09-30T01:17:01;14.10;99.90
31661;DHT22;18267;52.234;7.444;2023-09-30T01:19:26;14.10;99.90
31661;DHT22;18267;52.234;7.444;2023-09-30T01:21:56;14.10;99.90
31661;DHT22;18267;52.234;7.444;2023-09-30T01:24:29;14.10;99.90
31661;DHT22;18267;52.234;7.444;2023-09-30T01:26:55;14.10;99.90
31661;DHT22;18267;52.234;7.444;2023-09-30T01:29:21;13.90;99.90
31661;DHT22;18267;52.234;7.444;2023-09-30T01:31:50;14.00;99.90
31661;DHT22;18267;52.234;7.444;2023-09-30T01:34:16;14.00;99.90
31661;DHT22;18267;52.234;7.444;2023-09-30T01:36:43;14.00;99.90
31661;DHT22;18267;52.234;7.444;2023-09-30T01:39:09;14.00;99.90
31661;DHT22;18267;52.234;7.444;2023-09-30T01:41:39;14.10;99.90
31661;DHT22;18267;52.234;7.444;2023-09-30T01:44:05;14.10;99.90
31661;DHT22;18267;52.234;7.444;2023-09-30T01:46:31;14.10;99.90
31661;DHT22;18267;52.234;7.444;2023-09-30T01:48:56;14.00;99.90
31661;DHT22;18267;52.234;7.444;2023-09-30T01:51:22;13.90;99.90
31661;DHT22;18267;52.234;7.444;2023-09-30T01:53:49;14.00;99.90
31661;DHT22;18267;52.234;7.444;2023-09-30T01:56:14;14.00;99.90
31661;DHT22;18267;52.234;7.444;2023-09-30T01:58:40;13.90;99.90
31661;DHT22;18267;52.234;7.444;2023-09-30T02:01:05;14.00;99.90
31661;DHT22;18267;52.234;7.444;2023-09-30T02:03:32;14.00;99.90
31661;DHT22;18267;52.234;7.444;2023-09-30T02:05:57;14.10;99.90
31661;DHT22;18267;52.234;7.444;2023-09-30T02:08:23;14.00;99.90
31661;DHT22;18267;52.234;7.444;2023-09-30T02:10:49;13.90;99.90
31661;DHT22;18267;52.234;7.444;2023-09-30T02:13:16;13.90;99.90
31661;DHT22;18267;52.234;7.444;2023-09-30T02:15:42;13.90;99.90
31661;DHT22;18267;52.234;7.444;2023-09-30T02:18:08;14.00;99.90
31661;DHT22;18267;52.234;7.444;2023-09-30T02:20:35;14.00;99.90
31661;DHT22;18267;52.234;7.444;2023-09-30T02:23:05;13.90;99.90
31661;DHT22;18267;52.234;7.444;2023-09-30T02:25:31;13.90;99.90
31661;DHT22;18267;52.234;7.444;2023-09-30T02:27:57;13.90;99.90
31661;DHT22;18267;52.234;7.444;2023-09-30T02:30:22;13.90;99.90
31661;DHT22;18267;52.234;7.444;2023-09-30T02:32:49;13.90;99.90
31661;DHT22;18267;52.234;7.444;2023-09-30T02:35:14;13.90;99.90
31661;DHT22;18267;52.234;7.444;2023-09-30T02:37:40;13.80;99.90
31661;DHT22;18267;52.234;7.444;2023-09-30T02:40:07;13.70;99.90
31661;DHT22;18267;52.234;7.444;2023-09-30T02:42:36;13.70;99.90
31661;DHT22;18267;52.234;7.444;2023-09-30T02:45:04;13.70;99.90
31661;DHT22;18267;52.234;7.444;2023-09-30T02:47:29;13.80;99.90
31661;DHT22;18267;52.234;7.444;2023-09-30T02:49:57;13.60;99.90
31661;DHT22;18267;52.234;7.444;2023-09-30T02:52:23;13.50;99.90
31661;DHT22;18267;52.234;7.444;2023-09-30T02:54:49;13.60;99.90
31661;DHT22;18267;52.234;7.444;2023-09-30T02:57:15;13.60;99.90
31661;DHT22;18267;52.234;7.444;2023-09-30T02:59:41;13.70;99.90
31661;DHT22;18267;52.234;7.444;2023-09-30T03:02:07;13.70;99.90
31661;DHT22;18267;52.234;7.444;2023-09-30T03:04:33;13.60;99.90
31661;DHT22;18267;52.234;7.444;2023-09-30T03:06:58;13.60;99.90
31661;DHT22;18267;52.234;7.444;2023-09-30T03:09:25;13.60;99.90
31661;DHT22;18267;52.234;7.444;2023-09-30T03:11:51;13.70;99.90
31661;DHT22;18267;52.234;7.444;2023-09-30T03:14:16;13.70;99.90
31661;DHT22;18267;52.234;7.444;2023-09-30T03:16:42;13.80;99.90
31661;DHT22;18267;52.234;7.444;2023-09-30T03:19:09;13.80;99.90
31661;DHT22;18267;52.234;7.444;2023-09-30T03:21:39;13.70;99.90
31661;DHT22;18267;52.234;7.444;2023-09-30T03:24:08;13.70;99.90
31661;DHT22;18267;52.234;7.444;2023-09-30T03:26:37;13.70;99.90
31661;DHT22;18267;52.234;7.444;2023-09-30T03:29:06;13.70;99.90
31661;DHT22;18267;52.234;7.444;2023-09-30T03:31:35;13.70;99.90
31661;DHT22;18267;52.234;7.444;2023-09-30T03:34:04;13.60;99.90
31661;DHT22;18267;52.234;7.444;2023-09-30T03:36:30;13.60;99.90
31661;DHT22;18267;52.234;7.444;2023-09-30T03:38:56;13.60;99.90
31661;DHT22;18267;52.234;7.444;2023-09-30T03:41:22;13.50;99.90
31661;DHT22;18267;52.234;7.444;2023-09-30T03:43:48;13.50;99.90
31661;DHT22;18267;52.234;7.444;2023-09-30T03:46:14;13.40;99.90
31661;DHT22;18267;52.234;7.444;2023-09-30T03:48:41;13.40;99.90
31661;DHT22;18267;52.234;7.444;2023-09-30T03:51:11;13.40;99.90
31661;DHT22;18267;52.234;7.444;2023-09-30T03:53:43;13.30;99.90
31661;DHT22;18267;52.234;7.444;2023-09-30T03:56:08;13.30;99.90
31661;DHT22;18267;52.234;7.444;2023-09-30T03:58:37;13.20;99.90
31661;DHT22;18267;52.234;7.444;2023-09-30T04:01:04;13.20;99.90
31661;DHT22;18267;52.234;7.444;2023-09-30T04:03:30;13.30;99.90
31661;DHT22;18267;52.234;7.444;2023-09-30T04:05:59;13.40;99.90
31661;DHT22;18267;52.234;7.444;2023-09-30T04:08:25;13.30;99.90
31661;DHT22;18267;52.234;7.444;2023-09-30T04:10:50;13.30;99.90
31661;DHT22;18267;52.234;7.444;2023-09-30T04:13:16;13.30;99.90
31661;DHT22;18267;52.234;7.444;2023-09-30T04:15:43;13.30;99.90
31661;DHT22;18267;52.234;7.444;2023-09-30T04:18:10;13.40;99.90
31661;DHT22;18267;52.234;7.444;2023-09-30T04:20:37;13.40;99.90
31661;DHT22;18267;52.234;7.444;2023-09-30T04:23:05;13.30;99.90
31661;DHT22;18267;52.234;7.444;2023-09-30T04:25:32;13.30;99.90
31661;DHT22;18267;52.234;7.444;2023-09-30T04:27:57;13.40;99.90
31661;DHT22;18267;52.234;7.444;2023-09-30T04:30:23;13.30;99.90
31661;DHT22;18267;52.234;7.444;2023-09-30T04:32:48;13.30;99.90
31661;DHT22;18267;52.234;7.444;2023-09-30T04:35:14;13.30;99.90
31661;DHT22;18267;52.234;7.444;2023-09-30T04:37:40;13.30;99.90
31661;DHT22;18267;52.234;7.444;2023-09-30T04:40:08;13.20;99.90
31661;DHT22;18267;52.234;7.444;2023-09-30T04:42:45;13.10;99.90
31661;DHT22;18267;52.234;7.444;2023-09-30T04:45:12;13.00;99.90
31661;DHT22;18267;52.234;7.444;2023-09-30T04:47:38;13.00;99.90
31661;DHT22;18267;52.234;7.444;2023-09-30T04:50:07;13.00;99.90
31661;DHT22;18267;52.234;7.444;2023-09-30T04:52:36;13.00;99.90
31661;DHT22;18267;52.234;7.444;2023-09-30T04:55:02;12.90;99.90
31661;DHT22;18267;52.234;7.444;2023-09-30T04:57:31;13.00;99.90
31661;DHT22;18267;52.234;7.444;2023-09-30T05:00:00;12.90;99.90
31661;DHT22;18267;52.234;7.444;2023-09-30T05:02:27;12.90;99.90
31661;DHT22;18267;52.234;7.444;2023-09-30T05:04:53;12.90;99.90
31661;DHT22;18267;52.234;7.444;2023-09-30T05:07:20;12.90;99.90
31661;DHT22;18267;52.234;7.444;2023-09-30T05:09:47;12.90;99.90
31661;DHT22;18267;52.234;7.444;2023-09-30T05:12:12;12.90;99.90
31661;DHT22;18267;52.234;7.444;2023-09-30T05:14:38;12.90;99.90
31661;DHT22;18267;52.234;7.444;2023-09-30T05:17:06;12.80;99.90
31661;DHT22;18267;52.234;7.444;2023-09-30T05:19:33;12.80;99.90
31661;DHT22;18267;52.234;7.444;2023-09-30T05:21:59;12.80;99.90
31661;DHT22;18267;52.234;7.444;2023-09-30T05:24:27;12.80;99.90
31661;DHT22;18267;52.234;7.444;2023-09-30T05:26:52;12.80;99.90
31661;DHT22;18267;52.234;7.444;2023-09-30T05:29:18;12.90;99.90
31661;DHT22;18267;52.234;7.444;2023-09-30T05:31:43;12.80;99.90
31661;DHT22;18267;52.234;7.444;2023-09-30T05:34:10;13.00;99.90
31661;DHT22;18267;52.234;7.444;2023-09-30T05:36:36;13.00;99.90
31661;DHT22;18267;52.234;7.444;2023-09-30T05:39:02;12.90;99.90
31661;DHT22;18267;52.234;7.444;2023-09-30T05:41:28;13.00;99.90
31661;DHT22;18267;52.234;7.444;2023-09-30T05:43:55;13.10;99.90
31661;DHT22;18267;52.234;7.444;2023-09-30T05:46:20;13.10;99.90
31661;DHT22;18267;52.234;7.444;2023-09-30T05:48:47;13.00;99.90
31661;DHT22;18267;52.234;7.444;2023-09-30T05:51:12;13.00;99.90
31661;DHT22;18267;52.234;7.444;2023-09-30T05:53:41;12.90;99.90
31661;DHT22;18267;52.234;7.444;2023-09-30T05:56:07;13.00;99.90
31661;DHT22;18267;52.234;7.444;2023-09-30T05:58:33;12.90;99.90
31661;DHT22;18267;52.234;7.444;2023-09-30T06:00:58;12.90;99.90
31661;DHT22;18267;52.234;7.444;2023-09-30T06:03:26;13.00;99.90
31661;DHT22;18267;52.234;7.444;2023-09-30T06:05:54;12.90;99.90
31661;DHT22;18267;52.234;7.444;2023-09-30T06:08:21;13.00;99.90
31661;DHT22;18267;52.234;7.444;2023-09-30T06:10:47;13.00;99.90
31661;DHT22;18267;52.234;7.444;2023-09-30T06:13:12;13.10;99.90
31661;DHT22;18267;52.234;7.444;2023-09-30T06:15:42;13.10;99.90
31661;DHT22;18267;52.234;7.444;2023-09-30T06:18:09;13.10;99.90
31661;DHT22;18267;52.234;7.444;2023-09-30T06:20:35;13.10;99.90
31661;DHT22;18267;52.234;7.444;2023-09-30T06:23:01;13.20;99.90
31661;DHT22;18267;52.234;7.444;2023-09-30T06:25:27;13.10;99.90
31661;DHT22;18267;52.234;7.444;2023-09-30T06:27:53;13.20;99.90
31661;DHT22;18267;52.234;7.444;2023-09-30T06:30:23;13.20;99.90
31661;DHT22;18267;52.234;7.444;2023-09-30T06:32:56;13.20;99.90
31661;DHT22;18267;52.234;7.444;2023-09-30T06:35:21;13.20;99.90
31661;DHT22;18267;52.234;7.444;2023-09-30T06:37:48;13.20;99.90
31661;DHT22;18267;52.234;7.444;2023-09-30T06:40:14;13.20;99.90
31661;DHT22;18267;52.234;7.444;2023-09-30T06:42:40;13.30;99.90
31661;DHT22;18267;52.234;7.444;2023-09-30T06:45:06;13.30;99.90
31661;DHT22;18267;52.234;7.444;2023-09-30T06:47:33;13.40;99.90
31661;DHT22;18267;52.234;7.444;2023-09-30T06:50:01;13.40;99.90
31661;DHT22;18267;52.234;7.444;2023-09-30T06:52:37;13.40;99.90
31661;DHT22;18267;52.234;7.444;2023-09-30T06:55:03;13.50;99.90
31661;DHT22;18267;52.234;7.444;2023-09-30T06:57:33;13.50;99.90
31661;DHT22;18267;52.234;7.444;2023-09-30T06:59:59;13.60;99.90
31661;DHT22;18267;52.234;7.444;2023-09-30T07:02:25;13.70;99.90
31661;DHT22;18267;52.234;7.444;2023-09-30T07:04:52;13.80;99.90
31661;DHT22;18267;52.234;7.444;2023-09-30T07:07:18;13.90;99.90
31661;DHT22;18267;52.234;7.444;2023-09-30T07:09:44;14.00;99.90
31661;DHT22;18267;52.234;7.444;2023-09-30T07:12:10;14.00;99.90
31661;DHT22;18267;52.234;7.444;2023-09-30T07:14:36;14.20;99.90
31661;DHT22;18267;52.234;7.444;2023-09-30T07:17:01;14.30;99.90
31661;DHT22;18267;52.234;7.444;2023-09-30T07:19:30;14.30;99.90
31661;DHT22;18267;52.234;7.444;2023-09-30T07:21:56;14.30;99.90
31661;DHT22;18267;52.234;7.444;2023-09-30T07:24:21;14.40;99.90
31661;DHT22;18267;52.234;7.444;2023-09-30T07:26:47;14.40;99.90
31661;DHT22;18267;52.234;7.444;2023-09-30T07:29:13;14.40;99.90
31661;DHT22;18267;52.234;7.444;2023-09-30T07:31:38;14.40;99.90
31661;DHT22;18267;52.234;7.444;2023-09-30T07:34:04;14.50;99.90
31661;DHT22;18267;52.234;7.444;2023-09-30T07:36:30;14.40;99.90
31661;DHT22;18267;52.234;7.444;2023-09-30T07:38:55;14.40;99.90
31661;DHT22;18267;52.234;7.444;2023-09-30T07:41:21;14.60;99.90
31661;DHT22;18267;52.234;7.444;2023-09-30T07:43:46;14.70;99.90
31661;DHT22;18267;52.234;7.444;2023-09-30T07:46:12;14.70;99.90
31661;DHT22;18267;52.234;7.444;2023-09-30T07:48:37;14.70;99.90
31661;DHT22;18267;52.234;7.444;2023-09-30T07:51:05;14.80;99.90
31661;DHT22;18267;52.234;7.444;2023-09-30T07:53:34;14.90;99.90
31661;DHT22;18267;52.234;7.444;2023-09-30T07:56:00;15.00;99.90
31661;DHT22;18267;52.234;7.444;2023-09-30T07:58:26;15.10;99.90
31661;DHT22;18267;52.234;7.444;2023-09-30T08:00:51;15.20;99.90
31661;DHT22;18267;52.234;7.444;2023-09-30T08:03:17;15.30;99.90
31661;DHT22;18267;52.234;7.444;2023-09-30T08:05:43;15.30;99.90
31661;DHT22;18267;52.234;7.444;2023-09-30T08:08:08;15.40;99.90
31661;DHT22;18267;52.234;7.444;2023-09-30T08:10:34;15.40;99.90
31661;DHT22;18267;52.234;7.444;2023-09-30T08:13:02;15.40;99.90
31661;DHT22;18267;52.234;7.444;2023-09-30T08:15:28;15.40;99.90
31661;DHT22;18267;52.234;7.444;2023-09-30T08:17:53;15.50;99.90
31661;DHT22;18267;52.234;7.444;2023-09-30T08:20:19;15.50;99.90
31661;DHT22;18267;52.234;7.444;2023-09-30T08:22:45;15.50;99.90
31661;DHT22;18267;52.234;7.444;2023-09-30T08:25:10;15.50;99.90
31661;DHT22;18267;52.234;7.444;2023-09-30T08:27:37;15.50;99.90
31661;DHT22;18267;52.234;7.444;2023-09-30T08:30:03;15.60;99.90
31661;DHT22;18267;52.234;7.444;2023-09-30T08:32:34;15.60;99.90
31661;DHT22;18267;52.234;7.444;2023-09-30T08:35:01;15.70;99.90
31661;DHT22;18267;52.234;7.444;2023-09-30T08:37:32;15.70;99.90
31661;DHT22;18267;52.234;7.444;2023-09-30T08:39:58;15.70;99.90
31661;DHT22;18267;52.234;7.444;2023-09-30T08:42:25;15.70;99.90
31661;DHT22;18267;52.234;7.444;2023-09-30T08:44:54;15.70;99.90
31661;DHT22;18267;52.234;7.444;2023-09-30T08:47:20;15.70;99.90
31661;DHT22;18267;52.234;7.444;2023-09-30T08:49:52;15.70;99.90
31661;DHT22;18267;52.234;7.444;2023-09-30T08:52:23;15.80;99.90
31661;DHT22;18267;52.234;7.444;2023-09-30T08:54:50;15.80;99.90
31661;DHT22;18267;52.234;7.444;2023-09-30T08:57:19;15.80;99.90
31661;DHT22;18267;52.234;7.444;2023-09-30T08:59:46;15.80;99.90
31661;DHT22;18267;52.234;7.444;2023-09-30T09:02:14;15.90;99.90
31661;DHT22;18267;52.234;7.444;2023-09-30T09:04:40;15.80;99.90
31661;DHT22;18267;52.234;7.444;2023-09-30T09:07:08;15.90;99.90
31661;DHT22;18267;52.234;7.444;2023-09-30T09:09:37;16.00;99.90
31661;DHT22;18267;52.234;7.444;2023-09-30T09:12:04;16.00;99.90
31661;DHT22;18267;52.234;7.444;2023-09-30T09:14:41;16.00;99.90
31661;DHT22;18267;52.234;7.444;2023-09-30T09:17:07;16.10;99.90
31661;DHT22;18267;52.234;7.444;2023-09-30T09:19:34;16.10;99.90
31661;DHT22;18267;52.234;7.444;2023-09-30T09:22:01;16.10;99.90
31661;DHT22;18267;52.234;7.444;2023-09-30T09:24:34;16.10;99.90
31661;DHT22;18267;52.234;7.444;2023-09-30T09:27:12;16.10;99.90
31661;DHT22;18267;52.234;7.444;2023-09-30T09:29:39;16.10;99.90
31661;DHT22;18267;52.234;7.444;2023-09-30T09:32:12;16.10;99.90
31661;DHT22;18267;52.234;7.444;2023-09-30T09:34:41;16.10;99.90
31661;DHT22;18267;52.234;7.444;2023-09-30T09:37:31;16.10;99.90
31661;DHT22;18267;52.234;7.444;2023-09-30T09:40:07;16.10;99.90
31661;DHT22;18267;52.234;7.444;2023-09-30T09:42:33;16.20;99.90
31661;DHT22;18267;52.234;7.444;2023-09-30T09:45:02;16.30;99.90
31661;DHT22;18267;52.234;7.444;2023-09-30T09:47:30;16.30;99.90
31661;DHT22;18267;52.234;7.444;2023-09-30T09:49:59;16.40;99.90
31661;DHT22;18267;52.234;7.444;2023-09-30T09:52:28;16.40;99.90
31661;DHT22;18267;52.234;7.444;2023-09-30T09:54:54;16.40;99.90
31661;DHT22;18267;52.234;7.444;2023-09-30T09:57:20;16.40;99.90
31661;DHT22;18267;52.234;7.444;2023-09-30T09:59:46;16.50;99.90
31661;DHT22;18267;52.234;7.444;2023-09-30T10:02:15;16.50;99.90
31661;DHT22;18267;52.234;7.444;2023-09-30T10:04:46;16.60;99.90
31661;DHT22;18267;52.234;7.444;2023-09-30T10:07:20;16.70;99.90
31661;DHT22;18267;52.234;7.444;2023-09-30T10:09:49;16.90;99.90
31661;DHT22;18267;52.234;7.444;2023-09-30T10:12:17;17.00;99.90
31661;DHT22;18267;52.234;7.444;2023-09-30T10:14:43;17.10;99.90
31661;DHT22;18267;52.234;7.444;2023-09-30T10:17:09;17.20;99.90
31661;DHT22;18267;52.234;7.444;2023-09-30T10:19:35;17.20;99.90
31661;DHT22;18267;52.234;7.444;2023-09-30T10:24:46;17.40;99.90
31661;DHT22;18267;52.234;7.444;2023-09-30T10:27:27;17.50;99.90
31661;DHT22;18267;52.234;7.444;2023-09-30T10:40:47;17.60;99.90
31661;DHT22;18267;52.234;7.444;2023-09-30T10:45:57;17.80;99.90
31661;DHT22;18267;52.234;7.444;2023-09-30T10:51:11;18.00;99.90
31661;DHT22;18267;52.234;7.444;2023-09-30T10:53:45;18.00;99.90
31661;DHT22;18267;52.234;7.444;2023-09-30T10:56:11;18.00;99.90
31661;DHT22;18267;52.234;7.444;2023-09-30T10:58:47;18.00;99.90
31661;DHT22;18267;52.234;7.444;2023-09-30T11:01:16;18.00;99.90
31661;DHT22;18267;52.234;7.444;2023-09-30T11:03:42;18.00;99.90
31661;DHT22;18267;52.234;7.444;2023-09-30T11:06:12;18.10;99.90
31661;DHT22;18267;52.234;7.444;2023-09-30T11:08:44;18.00;99.90
31661;DHT22;18267;52.234;7.444;2023-09-30T11:11:11;18.00;99.90
31661;DHT22;18267;52.234;7.444;2023-09-30T11:13:37;17.90;99.90
31661;DHT22;18267;52.234;7.444;2023-09-30T11:16:04;17.80;99.90
31661;DHT22;18267;52.234;7.444;2023-09-30T11:18:30;17.80;99.90
31661;DHT22;18267;52.234;7.444;2023-09-30T11:21:08;17.70;99.90
31661;DHT22;18267;52.234;7.444;2023-09-30T11:23:35;17.60;99.90
31661;DHT22;18267;52.234;7.444;2023-09-30T11:26:01;17.50;99.90
31661;DHT22;18267;52.234;7.444;2023-09-30T11:28:39;17.50;99.90
31661;DHT22;18267;52.234;7.444;2023-09-30T11:31:11;17.60;99.90
31661;DHT22;18267;52.234;7.444;2023-09-30T11:33:53;17.60;99.90
31661;DHT22;18267;52.234;7.444;2023-09-30T11:36:22;17.60;99.90
31661;DHT22;18267;52.234;7.444;2023-09-30T11:38:48;17.70;99.90
31661;DHT22;18267;52.234;7.444;2023-09-30T11:41:15;17.70;99.90
31661;DHT22;18267;52.234;7.444;2023-09-30T11:44:09;17.70;99.90
31661;DHT22;18267;52.234;7.444;2023-09-30T11:49:24;17.80;99.90
31661;DHT22;18267;52.234;7.444;2023-09-30T11:51:49;17.90;99.90
31661;DHT22;18267;52.234;7.444;2023-09-30T11:54:16;18.00;99.90
31661;DHT22;18267;52.234;7.444;2023-09-30T11:56:41;18.10;99.90
31661;DHT22;18267;52.234;7.444;2023-09-30T11:59:08;18.10;99.90
31661;DHT22;18267;52.234;7.444;2023-09-30T12:01:37;18.20;99.90
31661;DHT22;18267;52.234;7.444;2023-09-30T12:04:03;18.20;99.90
31661;DHT22;18267;52.234;7.444;2023-09-30T12:06:38;18.20;99.90
31661;DHT22;18267;52.234;7.444;2023-09-30T12:09:04;18.10;99.90
31661;DHT22;18267;52.234;7.444;2023-09-30T12:11:30;18.00;99.90
31661;DHT22;18267;52.234;7.444;2023-09-30T12:13:55;18.00;99.90
31661;DHT22;18267;52.234;7.444;2023-09-30T12:16:21;18.00;99.90
31661;DHT22;18267;52.234;7.444;2023-09-30T12:18:47;18.10;99.90
31661;DHT22;18267;52.234;7.444;2023-09-30T12:21:13;18.20;99.90
31661;DHT22;18267;52.234;7.444;2023-09-30T12:23:45;18.20;99.90
31661;DHT22;18267;52.234;7.444;2023-09-30T12:26:11;18.30;99.90
31661;DHT22;18267;52.234;7.444;2023-09-30T12:28:37;18.20;99.90
31661;DHT22;18267;52.234;7.444;2023-09-30T12:31:03;18.20;99.90
31661;DHT22;18267;52.234;7.444;2023-09-30T12:33:30;18.30;99.90
31661;DHT22;18267;52.234;7.444;2023-09-30T12:36:03;18.30;99.90
31661;DHT22;18267;52.234;7.444;2023-09-30T12:38:28;18.40;99.90
31661;DHT22;18267;52.234;7.444;2023-09-30T12:40:55;18.50;99.90
31661;DHT22;18267;52.234;7.444;2023-09-30T12:43:21;18.50;99.90
31661;DHT22;18267;52.234;7.444;2023-09-30T12:45:47;18.60;99.90
31661;DHT22;18267;52.234;7.444;2023-09-30T12:48:13;18.60;99.90
31661;DHT22;18267;52.234;7.444;2023-09-30T12:50:40;18.50;99.90
31661;DHT22;18267;52.234;7.444;2023-09-30T12:53:05;18.50;99.90
31661;DHT22;18267;52.234;7.444;2023-09-30T12:55:32;18.50;99.90
31661;DHT22;18267;52.234;7.444;2023-09-30T12:57:58;18.50;99.90
31661;DHT22;18267;52.234;7.444;2023-09-30T13:00:25;18.50;99.90
31661;DHT22;18267;52.234;7.444;2023-09-30T13:02:51;18.50;99.90
31661;DHT22;18267;52.234;7.444;2023-09-30T13:05:17;18.50;99.90
31661;DHT22;18267;52.234;7.444;2023-09-30T13:07:43;18.50;99.90
31661;DHT22;18267;52.234;7.444;2023-09-30T13:10:09;18.50;99.90
31661;DHT22;18267;52.234;7.444;2023-09-30T13:12:35;18.60;99.90
31661;DHT22;18267;52.234;7.444;2023-09-30T13:15:01;18.60;99.90
31661;DHT22;18267;52.234;7.444;2023-09-30T13:17:27;18.60;99.90
31661;DHT22;18267;52.234;7.444;2023-09-30T13:19:54;18.60;99.90
31661;DHT22;18267;52.234;7.444;2023-09-30T13:22:20;18.50;99.90
31661;DHT22;18267;52.234;7.444;2023-09-30T13:24:46;18.40;99.90
31661;DHT22;18267;52.234;7.444;2023-09-30T13:27:12;18.30;99.90
31661;DHT22;18267;52.234;7.444;2023-09-30T13:29:42;18.30;99.90
31661;DHT22;18267;52.234;7.444;2023-09-30T13:32:09;18.30;99.90
31661;DHT22;18267;52.234;7.444;2023-09-30T13:34:35;18.30;99.90
31661;DHT22;18267;52.234;7.444;2023-09-30T13:37:06;18.30;99.90
31661;DHT22;18267;52.234;7.444;2023-09-30T13:39:32;18.40;99.90
31661;DHT22;18267;52.234;7.444;2023-09-30T13:41:59;18.50;99.90
31661;DHT22;18267;52.234;7.444;2023-09-30T13:44:25;18.50;99.90
31661;DHT22;18267;52.234;7.444;2023-09-30T13:46:50;18.60;99.90
31661;DHT22;18267;52.234;7.444;2023-09-30T13:49:19;18.60;99.90
31661;DHT22;18267;52.234;7.444;2023-09-30T13:51:46;18.50;99.90
31661;DHT22;18267;52.234;7.444;2023-09-30T13:54:13;18.50;99.90
31661;DHT22;18267;52.234;7.444;2023-09-30T13:56:41;18.50;99.90
31661;DHT22;18267;52.234;7.444;2023-09-30T13:59:15;18.50;99.90
31661;DHT22;18267;52.234;7.444;2023-09-30T14:01:41;18.50;99.90
31661;DHT22;18267;52.234;7.444;2023-09-30T14:04:07;18.50;99.90
31661;DHT22;18267;52.234;7.444;2023-09-30T14:06:33;18.50;99.90
31661;DHT22;18267;52.234;7.444;2023-09-30T14:08:59;18.50;99.90
31661;DHT22;18267;52.234;7.444;2023-09-30T14:11:25;18.50;99.90
31661;DHT22;18267;52.234;7.444;2023-09-30T14:13:51;18.50;99.90
31661;DHT22;18267;52.234;7.444;2023-09-30T14:16:17;18.60;99.90
31661;DHT22;18267;52.234;7.444;2023-09-30T14:18:42;18.60;99.90
31661;DHT22;18267;52.234;7.444;2023-09-30T14:21:08;18.50;99.90
31661;DHT22;18267;52.234;7.444;2023-09-30T14:23:33;18.50;99.90
31661;DHT22;18267;52.234;7.444;2023-09-30T14:25:59;18.30;99.90
31661;DHT22;18267;52.234;7.444;2023-09-30T14:28:26;18.20;99.90
31661;DHT22;18267;52.234;7.444;2023-09-30T14:30:51;18.10;99.90
31661;DHT22;18267;52.234;7.444;2023-09-30T14:33:17;18.00;99.90
31661;DHT22;18267;52.234;7.444;2023-09-30T14:35:45;17.90;99.90
31661;DHT22;18267;52.234;7.444;2023-09-30T14:38:11;17.90;99.90
31661;DHT22;18267;52.234;7.444;2023-09-30T14:40:40;17.90;99.90
31661;DHT22;18267;52.234;7.444;2023-09-30T14:43:07;17.90;99.90
31661;DHT22;18267;52.234;7.444;2023-09-30T14:45:37;17.80;99.90
31661;DHT22;18267;52.234;7.444;2023-09-30T14:48:03;17.80;99.90
31661;DHT22;18267;52.234;7.444;2023-09-30T14:50:29;17.90;99.90
31661;DHT22;18267;52.234;7.444;2023-09-30T14:52:54;17.90;99.90
31661;DHT22;18267;52.234;7.444;2023-09-30T14:55:20;17.90;99.90
31661;DHT22;18267;52.234;7.444;2023-09-30T14:57:45;17.90;99.90
31661;DHT22;18267;52.234;7.444;2023-09-30T15:00:13;18.00;99.90
31661;DHT22;18267;52.234;7.444;2023-09-30T15:02:38;18.10;99.90
31661;DHT22;18267;52.234;7.444;2023-09-30T15:05:06;18.20;99.90
31661;DHT22;18267;52.234;7.444;2023-09-30T15:07:31;18.20;99.90
31661;DHT22;18267;52.234;7.444;2023-09-30T15:09:57;18.20;99.90
31661;DHT22;18267;52.234;7.444;2023-09-30T15:12:22;18.20;99.90
31661;DHT22;18267;52.234;7.444;2023-09-30T15:14:48;18.20;99.90
31661;DHT22;18267;52.234;7.444;2023-09-30T15:17:14;18.20;99.90
31661;DHT22;18267;52.234;7.444;2023-09-30T15:19:39;18.10;99.90
31661;DHT22;18267;52.234;7.444;2023-09-30T15:22:05;18.00;99.90
31661;DHT22;18267;52.234;7.444;2023-09-30T15:24:30;17.90;99.90
31661;DHT22;18267;52.234;7.444;2023-09-30T15:26:56;17.80;99.90
31661;DHT22;18267;52.234;7.444;2023-09-30T15:29:21;17.80;99.90
31661;DHT22;18267;52.234;7.444;2023-09-30T15:31:47;17.70;99.90
31661;DHT22;18267;52.234;7.444;2023-09-30T15:34:12;17.70;99.90
31661;DHT22;18267;52.234;7.444;2023-09-30T15:36:38;17.60;99.90
31661;DHT22;18267;52.234;7.444;2023-09-30T15:39:04;17.60;99.90
31661;DHT22;18267;52.234;7.444;2023-09-30T15:41:29;17.50;99.90
31661;DHT22;18267;52.234;7.444;2023-09-30T15:43:58;17.50;99.90
31661;DHT22;18267;52.234;7.444;2023-09-30T15:46:25;17.40;99.90
31661;DHT22;18267;52.234;7.444;2023-09-30T15:48:50;17.40;99.90
31661;DHT22;18267;52.234;7.444;2023-09-30T15:51:16;17.40;99.90